Gresham, Oregon
Current Conditions -  °F | °C
As of 11:53 AM on Monday 24 Nov 2014 (Local Time) from KTTD Reporting Station
Overcast Overcast  
Wind Chill: 52°   Ceiling: 10000
Heat Index: 52°   Visibility: 10mi
Dew Point: 44°   Wind: 8mph
Humidity: 74%   Direction: 90°E
Pressure: 30.33"   Gusts: NA
Location:  45.51°N, 122.43°W
Report Text: KTTD 241953Z 09007KT 10SM OVC100 11/07 A3033 RMK AO2 SLP270 T01110067
Loading
Personal Weather Stations






























Interactive Weather Map New forecast layout! Learn more

10-Day Weather Forecast

Advertisements
Track Severe Weather on mobile